createdAt,value
2017-06-26T00:00:38.598Z,17.80
2017-06-26T00:03:06.174Z,17.80
2017-06-26T00:05:33.733Z,17.80
2017-06-26T00:08:01.290Z,17.80
2017-06-26T00:10:28.855Z,17.70
2017-06-26T00:12:56.494Z,17.70
2017-06-26T00:15:24.852Z,17.90
2017-06-26T00:17:52.411Z,17.90
2017-06-26T00:20:19.989Z,17.90
2017-06-26T00:22:48.337Z,18.00
2017-06-26T00:25:15.924Z,18.00
2017-06-26T00:27:44.118Z,17.90
2017-06-26T00:30:11.809Z,17.90
2017-06-26T00:32:40.475Z,17.70
2017-06-26T00:35:08.030Z,17.60
2017-06-26T00:37:35.638Z,17.50
2017-06-26T00:40:03.232Z,17.50
2017-06-26T00:42:30.792Z,17.40
2017-06-26T00:44:58.406Z,17.20
2017-06-26T00:47:25.978Z,17.10
2017-06-26T00:49:53.734Z,17.00
2017-06-26T00:52:21.301Z,16.80
2017-06-26T00:54:48.975Z,16.80
2017-06-26T00:57:16.553Z,16.70
2017-06-26T00:59:44.114Z,16.60
2017-06-26T01:02:11.675Z,16.50
2017-06-26T01:04:39.293Z,16.40
2017-06-26T01:07:07.800Z,16.50
2017-06-26T01:09:35.354Z,16.50
2017-06-26T01:12:02.966Z,16.50
2017-06-26T01:14:30.518Z,16.50
2017-06-26T01:16:58.074Z,16.60
2017-06-26T01:19:25.704Z,16.60
2017-06-26T01:21:53.302Z,16.40
2017-06-26T01:24:20.858Z,16.40
2017-06-26T01:26:48.518Z,16.40
2017-06-26T01:29:16.080Z,16.30
2017-06-26T01:31:43.717Z,16.20
2017-06-26T01:34:11.289Z,16.20
2017-06-26T01:36:38.893Z,16.10
2017-06-26T01:39:06.535Z,16.10
2017-06-26T01:41:34.099Z,16.10
2017-06-26T01:44:01.666Z,16.00
2017-06-26T01:46:29.228Z,15.90
2017-06-26T01:48:56.857Z,15.90
2017-06-26T01:51:24.434Z,15.80
2017-06-26T01:53:52.084Z,15.80
2017-06-26T01:56:19.717Z,15.90
2017-06-26T01:58:47.289Z,15.90
2017-06-26T02:01:14.887Z,16.00
2017-06-26T02:03:42.449Z,16.10
2017-06-26T02:06:10.043Z,16.20
2017-06-26T02:08:37.663Z,16.30
2017-06-26T02:11:05.221Z,16.40
2017-06-26T02:13:32.801Z,16.50
2017-06-26T02:16:00.443Z,16.70
2017-06-26T02:18:28.591Z,16.80
2017-06-26T02:20:56.347Z,16.90
2017-06-26T02:23:24.675Z,16.90
2017-06-26T02:25:52.235Z,16.90
2017-06-26T02:28:19.811Z,16.90
2017-06-26T02:30:47.390Z,16.90
2017-06-26T02:33:14.967Z,16.90
2017-06-26T02:35:42.538Z,16.90
2017-06-26T02:38:10.918Z,17.10
2017-06-26T02:40:39.263Z,17.10
2017-06-26T02:43:10.290Z,17.10
2017-06-26T02:45:37.849Z,17.20
2017-06-26T02:48:05.435Z,17.20
2017-06-26T02:50:33.021Z,17.30
2017-06-26T02:53:01.366Z,17.30
2017-06-26T02:55:28.923Z,17.30
2017-06-26T02:57:56.506Z,17.30
2017-06-26T03:00:24.078Z,17.30
2017-06-26T03:02:51.658Z,17.30
2017-06-26T03:05:19.204Z,17.30
2017-06-26T03:07:46.783Z,17.40
2017-06-26T03:10:14.346Z,17.40
2017-06-26T03:12:42.684Z,17.40
2017-06-26T03:15:11.164Z,17.40
2017-06-26T03:17:38.858Z,17.40
2017-06-26T03:20:07.206Z,17.50
2017-06-26T03:22:34.905Z,17.40
2017-06-26T03:25:02.466Z,17.50
2017-06-26T03:27:30.924Z,17.50
2017-06-26T03:29:58.462Z,17.40
2017-06-26T03:32:26.029Z,17.50
2017-06-26T03:34:53.606Z,17.50
2017-06-26T03:37:21.204Z,17.50
2017-06-26T03:39:49.530Z,17.30
2017-06-26T03:42:17.305Z,17.30
2017-06-26T03:44:44.897Z,17.20
2017-06-26T03:47:12.452Z,17.20
2017-06-26T03:49:40.014Z,17.10
2017-06-26T03:52:07.582Z,17.00
2017-06-26T03:54:35.143Z,17.00
2017-06-26T03:57:02.761Z,16.90
2017-06-26T03:59:30.339Z,16.90
2017-06-26T04:01:57.906Z,16.90
2017-06-26T04:04:25.499Z,16.90
2017-06-26T04:06:53.830Z,17.10
2017-06-26T04:09:21.418Z,17.10
2017-06-26T04:11:48.973Z,17.30
2017-06-26T04:14:16.522Z,17.50
2017-06-26T04:17:00.639Z,17.50
2017-06-26T04:19:28.250Z,17.60
2017-06-26T04:21:55.894Z,17.70
2017-06-26T04:24:23.483Z,17.80
2017-06-26T04:26:51.058Z,17.90
2017-06-26T04:29:19.377Z,18.20
2017-06-26T04:31:46.971Z,18.20
2017-06-26T04:34:14.526Z,18.30
2017-06-26T04:36:42.262Z,18.40
2017-06-26T04:39:09.835Z,18.40
2017-06-26T04:41:37.383Z,18.40
2017-06-26T04:44:04.967Z,18.30
2017-06-26T04:46:32.550Z,18.40
2017-06-26T04:49:00.123Z,18.40
2017-06-26T04:51:27.691Z,18.50
2017-06-26T04:53:55.267Z,18.60
2017-06-26T04:56:23.623Z,18.80
2017-06-26T04:58:51.206Z,18.80
2017-06-26T05:01:18.767Z,18.80
2017-06-26T05:03:46.385Z,18.80
2017-06-26T05:06:13.942Z,18.60
2017-06-26T05:08:41.521Z,18.60
2017-06-26T05:11:09.103Z,18.50
2017-06-26T05:13:36.667Z,18.50
2017-06-26T05:16:04.352Z,18.30
2017-06-26T05:18:32.667Z,18.60
2017-06-26T05:21:00.238Z,18.60
2017-06-26T05:23:27.811Z,18.70
2017-06-26T05:25:55.378Z,18.60
2017-06-26T05:28:23.016Z,18.50
2017-06-26T05:30:50.582Z,18.70
2017-06-26T05:33:18.174Z,19.00
2017-06-26T05:35:45.762Z,19.10
2017-06-26T05:38:14.122Z,18.90
2017-06-26T05:40:41.689Z,18.90
2017-06-26T05:43:09.235Z,19.10
2017-06-26T05:45:36.812Z,19.20
2017-06-26T05:48:04.376Z,19.20
2017-06-26T05:50:31.926Z,19.10
2017-06-26T05:52:59.514Z,19.10
2017-06-26T05:55:27.833Z,19.10
2017-06-26T05:57:55.415Z,19.10
2017-06-26T06:00:22.971Z,19.10
2017-06-26T06:02:50.518Z,19.20
2017-06-26T06:05:18.106Z,19.30
2017-06-26T06:07:45.849Z,19.30
2017-06-26T06:10:13.433Z,19.30
2017-06-26T06:12:41.000Z,19.40
2017-06-26T06:15:08.570Z,19.70
2017-06-26T06:17:36.150Z,19.90
2017-06-26T06:20:03.704Z,19.90
2017-06-26T06:22:32.465Z,19.80
2017-06-26T06:25:00.030Z,19.60
2017-06-26T06:27:27.670Z,19.70
2017-06-26T06:29:55.231Z,19.70
2017-06-26T06:32:22.791Z,19.80
2017-06-26T06:34:50.357Z,19.90
2017-06-26T06:37:17.962Z,20.00
2017-06-26T06:39:45.543Z,20.10
2017-06-26T06:42:13.861Z,20.10
2017-06-26T06:44:41.466Z,20.10
2017-06-26T06:47:09.026Z,20.10
2017-06-26T06:49:36.598Z,20.00
2017-06-26T06:52:04.367Z,20.00
2017-06-26T06:54:31.932Z,19.90
2017-06-26T06:56:59.520Z,19.90
2017-06-26T06:59:27.069Z,20.20
2017-06-26T07:01:55.410Z,20.30
2017-06-26T07:04:23.038Z,20.30
2017-06-26T07:06:50.605Z,20.30
2017-06-26T07:09:18.180Z,20.20
2017-06-26T07:11:45.765Z,20.00
2017-06-26T07:14:13.354Z,20.00
2017-06-26T07:16:41.693Z,20.20
2017-06-26T07:19:10.190Z,20.20
2017-06-26T07:21:37.738Z,20.20
2017-06-26T07:24:05.317Z,20.20
2017-06-26T07:26:32.890Z,20.10
2017-06-26T07:29:00.465Z,20.00
2017-06-26T07:31:30.268Z,19.90
2017-06-26T07:33:58.630Z,19.90
2017-06-26T07:36:26.211Z,19.90
2017-06-26T07:38:53.866Z,19.90
2017-06-26T07:41:21.457Z,19.90
2017-06-26T07:43:49.870Z,19.90
2017-06-26T07:46:17.435Z,19.90
2017-06-26T07:48:45.019Z,20.00
2017-06-26T07:51:12.582Z,20.00
2017-06-26T07:53:40.172Z,19.90
2017-06-26T07:56:07.781Z,20.00
2017-06-26T07:58:35.342Z,19.90
2017-06-26T08:01:03.860Z,20.10
2017-06-26T08:03:31.490Z,20.10
2017-06-26T08:05:59.159Z,20.20
2017-06-26T08:08:26.749Z,20.10
2017-06-26T08:10:54.310Z,20.10
2017-06-26T08:13:22.153Z,20.00
2017-06-26T08:15:49.714Z,20.10
2017-06-26T08:18:17.273Z,20.00
2017-06-26T08:20:44.855Z,19.90
2017-06-26T08:23:12.451Z,20.10
2017-06-26T08:25:40.868Z,19.90
2017-06-26T08:28:08.557Z,19.90
2017-06-26T08:30:36.135Z,19.80
2017-06-26T08:33:03.690Z,19.80
2017-06-26T08:35:31.271Z,19.90
2017-06-26T08:37:58.864Z,19.90
2017-06-26T08:40:26.453Z,20.00
2017-06-26T08:42:54.123Z,20.10
2017-06-26T08:45:21.695Z,19.90
2017-06-26T08:47:49.277Z,19.80
2017-06-26T08:50:16.850Z,19.60
2017-06-26T08:52:44.418Z,19.50
2017-06-26T08:55:12.019Z,19.40
2017-06-26T08:57:39.724Z,19.50
2017-06-26T09:00:07.291Z,19.60
2017-06-26T09:02:34.870Z,19.90
2017-06-26T09:05:02.432Z,20.50
2017-06-26T09:07:30.026Z,21.40
2017-06-26T09:09:57.610Z,21.90
2017-06-26T09:12:25.182Z,22.00
2017-06-26T09:14:52.979Z,21.90
2017-06-26T09:17:20.542Z,21.70
2017-06-26T09:19:48.127Z,21.50
2017-06-26T09:22:15.691Z,21.40
2017-06-26T09:24:44.022Z,20.90
2017-06-26T09:27:11.622Z,20.90
2017-06-26T09:29:39.986Z,21.00
2017-06-26T09:32:07.571Z,21.00
2017-06-26T09:34:35.923Z,21.90
2017-06-26T09:37:03.505Z,21.90
2017-06-26T09:39:31.108Z,22.80
2017-06-26T09:41:58.671Z,23.80
2017-06-26T09:44:26.225Z,25.30
2017-06-26T09:46:53.817Z,26.20
2017-06-26T09:49:21.382Z,26.00
2017-06-26T09:51:48.959Z,25.30
2017-06-26T09:54:16.545Z,25.10
2017-06-26T09:56:44.882Z,24.20
2017-06-26T09:59:12.455Z,24.20
2017-06-26T10:01:40.050Z,23.90
2017-06-26T10:04:08.402Z,23.10
2017-06-26T10:06:35.995Z,23.00
2017-06-26T10:09:03.532Z,22.70
2017-06-26T10:11:31.147Z,22.30
2017-06-26T10:13:58.732Z,22.10
2017-06-26T10:16:26.314Z,21.80
2017-06-26T10:18:53.942Z,21.80
2017-06-26T10:21:21.510Z,21.70
2017-06-26T10:23:49.090Z,21.50
2017-06-26T10:26:16.674Z,21.30
2017-06-26T10:28:44.239Z,21.20
2017-06-26T10:31:11.823Z,21.10
2017-06-26T10:33:40.174Z,21.20
2017-06-26T10:36:07.742Z,21.20
2017-06-26T10:38:35.343Z,21.70
2017-06-26T10:41:03.678Z,25.50
2017-06-26T10:43:31.242Z,25.40
2017-06-26T10:45:58.819Z,27.20
2017-06-26T10:48:26.390Z,28.70
2017-06-26T10:50:54.743Z,30.50
2017-06-26T10:53:22.310Z,30.40
2017-06-26T10:55:49.884Z,31.00
2017-06-26T10:58:18.311Z,31.10
2017-06-26T11:00:45.911Z,29.90
2017-06-26T11:03:13.524Z,28.90
2017-06-26T11:05:41.845Z,27.10
2017-06-26T11:08:09.411Z,27.00
2017-06-26T11:10:36.990Z,26.60
2017-06-26T11:13:04.567Z,25.90
2017-06-26T11:15:32.133Z,25.30
2017-06-26T11:17:59.711Z,24.80
2017-06-26T11:20:28.034Z,24.50
2017-06-26T11:22:55.621Z,24.40
2017-06-26T11:25:23.195Z,24.40
2017-06-26T11:27:50.782Z,24.00
2017-06-26T11:30:19.246Z,23.70
2017-06-26T11:32:47.581Z,23.50
2017-06-26T11:35:15.231Z,23.40
2017-06-26T11:37:42.785Z,23.30
2017-06-26T11:40:10.354Z,23.00
2017-06-26T11:42:37.921Z,23.00
2017-06-26T11:45:05.520Z,23.10
2017-06-26T11:47:33.092Z,23.30
2017-06-26T11:50:00.692Z,23.30
2017-06-26T11:52:28.251Z,23.40
2017-06-26T11:54:55.811Z,23.30
2017-06-26T11:57:23.443Z,23.20
2017-06-26T11:59:51.001Z,23.30
2017-06-26T12:02:18.622Z,23.30
2017-06-26T12:04:46.246Z,23.70
2017-06-26T12:07:13.807Z,24.10
2017-06-26T12:09:42.161Z,25.40
2017-06-26T12:12:09.728Z,25.40
2017-06-26T12:14:37.306Z,26.00
2017-06-26T12:17:04.918Z,26.40
2017-06-26T12:19:32.494Z,26.80
2017-06-26T12:22:00.264Z,27.10
2017-06-26T12:24:27.859Z,27.00
2017-06-26T12:26:55.426Z,26.80
2017-06-26T12:29:22.975Z,26.70
2017-06-26T12:31:50.597Z,26.50
2017-06-26T12:34:18.201Z,26.40
2017-06-26T12:36:45.766Z,26.20
2017-06-26T12:39:13.350Z,26.00
2017-06-26T12:41:42.525Z,25.70
2017-06-26T12:44:10.087Z,25.60
2017-06-26T12:46:37.820Z,26.20
2017-06-26T12:49:05.401Z,26.50
2017-06-26T12:51:33.002Z,26.90
2017-06-26T12:54:01.494Z,28.00
2017-06-26T12:56:29.839Z,28.50
2017-06-26T12:58:57.437Z,28.40
2017-06-26T13:01:25.792Z,29.80
2017-06-26T13:03:53.377Z,29.70
2017-06-26T13:06:21.724Z,29.70
2017-06-26T13:08:49.294Z,29.70
2017-06-26T13:11:16.860Z,29.60
2017-06-26T13:13:44.522Z,29.00
2017-06-26T13:16:12.094Z,28.80
2017-06-26T13:18:39.675Z,28.80
2017-06-26T13:21:08.069Z,28.70
2017-06-26T13:23:35.650Z,28.70
2017-06-26T13:26:03.226Z,28.70
2017-06-26T13:28:30.899Z,28.50
2017-06-26T13:30:58.458Z,28.10
2017-06-26T13:33:26.060Z,28.70
2017-06-26T13:35:53.647Z,29.40
2017-06-26T13:38:21.270Z,29.60
2017-06-26T13:40:48.853Z,29.80
2017-06-26T13:43:17.198Z,29.50
2017-06-26T13:45:44.825Z,29.50
2017-06-26T13:48:13.410Z,28.70
2017-06-26T13:50:41.055Z,28.70
2017-06-26T13:53:08.671Z,28.30
2017-06-26T13:55:36.239Z,27.60
2017-06-26T13:58:03.850Z,27.50
2017-06-26T14:00:31.449Z,27.00
2017-06-26T14:02:59.033Z,26.20
2017-06-26T14:05:26.643Z,25.40
2017-06-26T14:07:54.292Z,25.60
2017-06-26T14:10:22.614Z,26.60
2017-06-26T14:12:50.191Z,26.60
2017-06-26T14:15:17.779Z,26.80
2017-06-26T14:17:45.356Z,27.00
2017-06-26T14:20:13.705Z,26.80
2017-06-26T14:22:41.277Z,26.80
2017-06-26T14:25:08.850Z,26.30
2017-06-26T14:27:37.222Z,26.60
2017-06-26T14:30:04.839Z,26.50
2017-06-26T14:32:32.414Z,26.40
2017-06-26T14:35:00.025Z,26.40
2017-06-26T14:37:28.456Z,26.60
2017-06-26T14:39:56.068Z,26.50
2017-06-26T14:42:24.430Z,27.00
2017-06-26T14:44:52.008Z,27.00
2017-06-26T14:47:19.585Z,26.90
2017-06-26T14:49:47.939Z,26.60
2017-06-26T14:52:15.493Z,26.50
2017-06-26T14:54:43.087Z,26.30
2017-06-26T14:57:11.428Z,26.40
2017-06-26T14:59:39.031Z,26.30
2017-06-26T15:02:06.619Z,26.90
2017-06-26T15:04:34.206Z,27.80
2017-06-26T15:07:01.779Z,28.60
2017-06-26T15:09:29.334Z,28.90
2017-06-26T15:11:56.930Z,28.70
2017-06-26T15:14:24.536Z,28.30
2017-06-26T15:16:52.090Z,27.70
2017-06-26T15:19:19.694Z,27.00
2017-06-26T15:21:47.259Z,26.50
2017-06-26T15:24:14.826Z,26.30
2017-06-26T15:26:42.583Z,26.80
2017-06-26T15:29:10.158Z,27.50
2017-06-26T15:31:37.744Z,27.90
2017-06-26T15:34:06.169Z,27.70
2017-06-26T15:36:33.851Z,27.70
2017-06-26T15:39:01.464Z,27.80
2017-06-26T15:41:29.067Z,27.60
2017-06-26T15:43:56.642Z,27.50
2017-06-26T15:46:24.219Z,27.90
2017-06-26T15:48:51.779Z,28.00
2017-06-26T15:51:19.378Z,27.80
2017-06-26T15:53:47.699Z,28.30
2017-06-26T15:56:15.508Z,28.30
2017-06-26T15:58:43.118Z,28.30
2017-06-26T16:01:10.713Z,28.70
2017-06-26T16:03:38.360Z,28.30
2017-06-26T16:06:05.918Z,27.60
2017-06-26T16:08:33.842Z,27.20
2017-06-26T16:11:02.171Z,26.80
2017-06-26T16:13:29.869Z,26.80
2017-06-26T16:15:57.542Z,26.80
2017-06-26T16:18:25.107Z,26.70
2017-06-26T16:20:53.488Z,27.10
2017-06-26T16:23:21.051Z,27.10
2017-06-26T16:25:48.651Z,26.90
2017-06-26T16:28:16.252Z,26.70
2017-06-26T16:30:44.783Z,26.70
2017-06-26T16:33:13.132Z,26.10
2017-06-26T16:35:40.698Z,26.10
2017-06-26T16:38:08.293Z,26.20
2017-06-26T16:40:35.867Z,26.40
2017-06-26T16:43:03.455Z,26.10
2017-06-26T16:45:31.117Z,26.10
2017-06-26T16:47:58.681Z,26.10
2017-06-26T16:50:26.290Z,26.00
2017-06-26T16:52:53.857Z,25.90
2017-06-26T16:55:22.244Z,26.00
2017-06-26T16:57:49.857Z,25.90
2017-06-26T17:00:17.435Z,25.80
2017-06-26T17:02:45.022Z,25.60
2017-06-26T17:05:13.406Z,25.70
2017-06-26T17:07:41.970Z,25.60
2017-06-26T17:10:09.544Z,25.60
2017-06-26T17:12:37.131Z,25.50
2017-06-26T17:15:04.733Z,25.50
2017-06-26T17:17:32.308Z,25.20
2017-06-26T17:19:59.978Z,25.20
2017-06-26T17:22:27.545Z,25.10
2017-06-26T17:24:55.182Z,24.90
2017-06-26T17:27:22.764Z,24.80
2017-06-26T17:29:50.335Z,24.80
2017-06-26T17:32:17.928Z,24.80
2017-06-26T17:34:46.262Z,24.50
2017-06-26T17:37:14.076Z,24.50
2017-06-26T17:39:42.441Z,24.40
2017-06-26T17:42:10.002Z,24.40
2017-06-26T17:44:37.575Z,24.40
2017-06-26T17:47:06.077Z,24.30
2017-06-26T17:49:34.466Z,24.30
2017-06-26T17:52:02.047Z,24.30
2017-06-26T17:54:30.424Z,24.30
2017-06-26T17:56:58.078Z,24.20
2017-06-26T17:59:25.629Z,24.00
2017-06-26T18:01:53.215Z,23.90
2017-06-26T18:04:20.787Z,23.80
2017-06-26T18:06:48.387Z,23.70
2017-06-26T18:09:16.021Z,23.70
2017-06-26T18:11:43.739Z,23.60
2017-06-26T18:14:11.319Z,23.60
2017-06-26T18:16:38.891Z,23.60
2017-06-26T18:19:06.491Z,23.50
2017-06-26T18:21:34.049Z,23.50
2017-06-26T18:24:01.628Z,23.40
2017-06-26T18:26:29.210Z,23.30
2017-06-26T18:28:57.629Z,23.00
2017-06-26T18:31:25.215Z,23.00
2017-06-26T18:33:52.837Z,23.00
2017-06-26T18:36:20.420Z,22.80
2017-06-26T18:38:48.007Z,22.70
2017-06-26T18:41:15.588Z,22.60
2017-06-26T18:43:43.203Z,22.60
2017-06-26T18:46:10.839Z,22.50
2017-06-26T18:48:39.294Z,22.40
2017-06-26T18:51:06.871Z,22.40
2017-06-26T18:53:34.456Z,22.40
2017-06-26T18:56:02.779Z,22.20
2017-06-26T18:58:30.375Z,22.20
2017-06-26T19:00:58.723Z,22.10
2017-06-26T19:03:26.313Z,22.10
2017-06-26T19:05:53.880Z,22.00
2017-06-26T19:08:21.458Z,21.90
2017-06-26T19:10:49.931Z,21.70
2017-06-26T19:13:17.505Z,21.70
2017-06-26T19:15:45.084Z,21.60
2017-06-26T19:18:12.702Z,21.50
2017-06-26T19:20:40.273Z,21.30
2017-06-26T19:23:07.875Z,21.20
2017-06-26T19:25:35.442Z,21.10
2017-06-26T19:28:03.002Z,20.90
2017-06-26T19:30:30.603Z,20.80
2017-06-26T19:32:58.241Z,20.60
2017-06-26T19:35:25.798Z,20.40
2017-06-26T19:37:53.386Z,20.20
2017-06-26T19:40:20.994Z,20.00
2017-06-26T19:42:49.511Z,19.80
2017-06-26T19:45:17.192Z,19.80
2017-06-26T19:47:44.773Z,19.60
2017-06-26T19:50:12.334Z,19.40
2017-06-26T19:52:39.924Z,19.30
2017-06-26T19:55:07.514Z,19.10
2017-06-26T19:57:35.086Z,19.00
2017-06-26T20:00:02.691Z,19.00
2017-06-26T20:02:30.272Z,18.90
2017-06-26T20:04:58.619Z,18.90
2017-06-26T20:07:26.238Z,18.80
2017-06-26T20:09:53.876Z,18.70
2017-06-26T20:12:22.215Z,18.50
2017-06-26T20:14:49.789Z,18.50
2017-06-26T20:17:18.027Z,18.40
2017-06-26T20:19:45.606Z,18.40
2017-06-26T20:22:13.169Z,18.40
2017-06-26T20:24:40.770Z,18.30
2017-06-26T20:27:08.470Z,18.30
2017-06-26T20:29:36.077Z,18.30
2017-06-26T20:32:03.718Z,18.30
2017-06-26T20:34:32.982Z,18.30
2017-06-26T20:37:00.618Z,18.20
2017-06-26T20:39:28.151Z,18.20
2017-06-26T20:41:55.726Z,18.20
2017-06-26T20:44:23.326Z,18.10
2017-06-26T20:46:50.892Z,18.10
2017-06-26T20:49:19.243Z,18.10
2017-06-26T20:51:46.894Z,18.10
2017-06-26T20:54:14.451Z,18.00
2017-06-26T20:56:42.846Z,17.90
2017-06-26T20:59:10.485Z,17.90
2017-06-26T21:01:38.087Z,17.80
2017-06-26T21:04:05.813Z,17.80
2017-06-26T21:06:33.390Z,17.80
2017-06-26T21:09:01.008Z,17.70
2017-06-26T21:11:29.344Z,17.70
2017-06-26T21:13:56.940Z,17.70
2017-06-26T21:16:25.472Z,17.50
2017-06-26T21:18:53.063Z,17.50
2017-06-26T21:21:20.651Z,17.50
2017-06-26T21:23:48.284Z,17.50
2017-06-26T21:26:15.890Z,17.50
2017-06-26T21:28:44.253Z,17.50
2017-06-26T21:31:11.850Z,17.50
2017-06-26T21:33:39.473Z,17.50
2017-06-26T21:36:07.198Z,17.40
2017-06-26T21:38:34.929Z,17.50
2017-06-26T21:41:03.322Z,17.40
2017-06-26T21:43:30.885Z,17.40
2017-06-26T21:45:58.468Z,17.40
2017-06-26T21:48:26.042Z,17.40
2017-06-26T21:50:53.625Z,17.50
2017-06-26T21:53:21.219Z,17.50
2017-06-26T21:55:49.567Z,17.80
2017-06-26T21:58:17.168Z,17.80
2017-06-26T22:00:44.721Z,17.80
2017-06-26T22:03:13.073Z,17.90
2017-06-26T22:05:40.636Z,17.80
2017-06-26T22:08:08.238Z,17.80
2017-06-26T22:10:35.829Z,17.90
2017-06-26T22:13:03.393Z,17.80
2017-06-26T22:15:30.984Z,17.70
2017-06-26T22:17:58.538Z,17.70
2017-06-26T22:20:26.113Z,17.60
2017-06-26T22:22:53.760Z,17.40
2017-06-26T22:25:21.463Z,17.30
2017-06-26T22:27:49.814Z,17.30
2017-06-26T22:30:17.384Z,17.20
2017-06-26T22:32:44.993Z,17.20
2017-06-26T22:35:12.601Z,17.20
2017-06-26T22:37:40.246Z,17.20
2017-06-26T22:40:07.831Z,17.10
2017-06-26T22:42:35.437Z,17.10
2017-06-26T22:45:03.802Z,17.10
2017-06-26T22:47:32.168Z,17.00
2017-06-26T22:49:59.823Z,17.00
2017-06-26T22:52:27.511Z,17.00
2017-06-26T22:54:55.825Z,16.80
2017-06-26T22:57:23.401Z,16.80
2017-06-26T22:59:50.991Z,16.80
2017-06-26T23:02:18.571Z,16.80
2017-06-26T23:04:47.601Z,16.80
2017-06-26T23:07:15.168Z,16.80
2017-06-26T23:09:42.737Z,16.70
2017-06-26T23:12:10.331Z,16.60
2017-06-26T23:14:37.891Z,16.60
2017-06-26T23:17:05.445Z,16.50
2017-06-26T23:19:33.074Z,16.50
2017-06-26T23:22:00.636Z,16.40
2017-06-26T23:24:28.217Z,16.50
2017-06-26T23:26:55.767Z,16.60
2017-06-26T23:29:23.380Z,16.60
2017-06-26T23:31:51.858Z,16.60
2017-06-26T23:34:19.421Z,16.50
2017-06-26T23:36:46.985Z,16.50
2017-06-26T23:39:14.631Z,16.40
2017-06-26T23:41:42.234Z,16.50
2017-06-26T23:44:09.810Z,16.60
2017-06-26T23:46:37.382Z,16.60
2017-06-26T23:49:04.973Z,16.60
2017-06-26T23:51:32.546Z,16.60
2017-06-26T23:54:00.124Z,16.50
2017-06-26T23:56:28.460Z,16.50
2017-06-26T23:58:56.054Z,16.50
